createdAt,value
2022-11-08T00:00:05.002Z,100993.69
2022-11-08T00:02:59.297Z,100987.38
2022-11-08T00:05:43.517Z,100993.38
2022-11-08T00:08:27.377Z,100981.28
2022-11-08T00:11:18.094Z,100998.94
2022-11-08T00:14:19.221Z,100991.25
2022-11-08T00:16:51.296Z,100994.81
2022-11-08T00:19:25.972Z,101002.00
2022-11-08T00:22:01.181Z,100993.59
2022-11-08T00:24:34.976Z,100997.41
2022-11-08T00:27:08.696Z,100998.25
2022-11-08T00:29:40.613Z,101008.94
2022-11-08T00:32:15.773Z,101015.03
2022-11-08T00:34:51.614Z,101004.09
2022-11-08T00:37:25.544Z,101003.41
2022-11-08T00:39:57.356Z,101012.19
2022-11-08T00:42:29.934Z,101016.41
2022-11-08T00:45:02.016Z,101011.66
2022-11-08T00:47:34.333Z,101008.81
2022-11-08T00:50:09.761Z,101015.56
2022-11-08T00:52:42.135Z,101014.56
2022-11-08T00:55:25.180Z,101012.19
2022-11-08T00:58:00.672Z,101017.75
2022-11-08T01:00:36.084Z,101017.56
2022-11-08T01:03:24.194Z,101004.94
2022-11-08T01:05:58.714Z,101012.69
2022-11-08T01:08:30.814Z,101008.81
2022-11-08T01:11:06.373Z,101007.81
2022-11-08T01:13:38.896Z,101006.28
2022-11-08T01:16:12.917Z,101010.16
2022-11-08T01:19:22.333Z,101010.19
2022-11-08T01:21:56.953Z,101001.72
2022-11-08T01:24:29.315Z,101006.97
2022-11-08T01:27:01.455Z,101007.31
2022-11-08T01:29:33.954Z,100995.00
2022-11-08T01:32:05.953Z,100998.16
2022-11-08T01:34:38.562Z,100997.03
2022-11-08T01:37:13.194Z,100991.28
2022-11-08T01:39:45.655Z,100989.44
2022-11-08T01:42:17.734Z,100991.09
2022-11-08T01:45:01.419Z,100994.66
2022-11-08T01:47:33.553Z,100987.25
2022-11-08T01:50:09.253Z,100991.97
2022-11-08T01:52:49.238Z,100989.25
2022-11-08T01:55:25.754Z,100989.25
2022-11-08T01:58:05.182Z,100998.56
2022-11-08T02:00:40.635Z,100989.09
2022-11-08T02:03:15.613Z,100992.94
2022-11-08T02:05:49.020Z,100995.47
2022-11-08T02:08:31.276Z,100994.34
2022-11-08T02:11:03.995Z,100992.81
2022-11-08T02:13:37.734Z,100993.81
2022-11-08T02:16:14.974Z,100991.94
2022-11-08T02:18:49.154Z,100983.03
2022-11-08T02:21:25.934Z,100978.28
2022-11-08T02:24:02.955Z,100977.44
2022-11-08T02:26:50.321Z,100987.25
2022-11-08T02:29:34.325Z,100989.81
2022-11-08T02:32:07.894Z,100985.22
2022-11-08T02:35:27.203Z,100996.69
2022-11-08T02:37:59.696Z,100989.59
2022-11-08T02:40:34.234Z,100988.97
2022-11-08T02:43:21.734Z,100992.47
2022-11-08T02:45:54.773Z,100979.00
2022-11-08T02:48:27.193Z,100985.91
2022-11-08T02:51:37.155Z,100988.25
2022-11-08T02:54:09.616Z,100982.00
2022-11-08T02:56:44.494Z,100988.25
2022-11-08T02:59:16.953Z,100984.38
2022-11-08T03:01:49.100Z,100982.03
2022-11-08T03:04:21.333Z,100986.22
2022-11-08T03:06:53.412Z,100980.34
2022-11-08T03:09:27.433Z,100986.41
2022-11-08T03:12:02.036Z,100980.50
2022-11-08T03:14:34.292Z,100987.25
2022-11-08T03:17:06.173Z,100987.56
2022-11-08T03:20:04.711Z,100986.75
2022-11-08T03:22:36.573Z,100978.78
2022-11-08T03:25:10.019Z,100974.75
2022-11-08T03:27:44.757Z,100983.88
2022-11-08T03:30:17.016Z,100987.44
2022-11-08T03:32:48.892Z,100981.91
2022-11-08T03:35:21.197Z,100976.13
2022-11-08T03:37:56.470Z,100981.03
2022-11-08T03:40:29.693Z,100982.16
2022-11-08T03:43:04.093Z,100978.69
2022-11-08T03:45:36.414Z,100970.91
2022-11-08T03:48:08.473Z,100975.66
2022-11-08T03:50:40.411Z,100974.25
2022-11-08T03:53:12.025Z,100972.06
2022-11-08T03:55:44.451Z,100975.44
2022-11-08T03:58:19.443Z,100967.03
2022-11-08T04:00:51.791Z,100965.50
2022-11-08T04:03:23.572Z,100963.34
2022-11-08T04:05:56.412Z,100969.38
2022-11-08T04:08:29.671Z,100965.19
2022-11-08T04:11:22.837Z,100967.34
2022-11-08T04:14:19.612Z,100973.91
2022-11-08T04:16:54.971Z,100972.50
2022-11-08T04:19:39.213Z,100975.03
2022-11-08T04:22:13.799Z,100972.34
2022-11-08T04:24:45.692Z,100972.72
2022-11-08T04:27:17.900Z,100977.69
2022-11-08T04:29:52.492Z,100974.50
2022-11-08T04:32:24.732Z,100989.44
2022-11-08T04:34:56.579Z,100973.84
2022-11-08T04:37:28.742Z,100971.13
2022-11-08T04:40:00.700Z,100972.84
2022-11-08T04:42:33.131Z,100973.28
2022-11-08T04:45:08.292Z,100970.03
2022-11-08T04:47:45.704Z,100975.09
2022-11-08T04:50:20.371Z,100976.28
2022-11-08T04:52:55.696Z,100973.13
2022-11-08T04:55:27.713Z,100977.84
2022-11-08T04:58:02.240Z,100983.44
2022-11-08T05:00:36.811Z,100978.50
2022-11-08T05:03:08.974Z,100978.25
2022-11-08T05:05:41.093Z,100976.44
2022-11-08T05:08:13.154Z,100973.84
2022-11-08T05:10:45.153Z,100973.81
2022-11-08T05:13:17.414Z,100980.41
2022-11-08T05:15:51.714Z,100977.78
2022-11-08T05:18:23.812Z,100975.16
2022-11-08T05:21:09.996Z,100982.16
2022-11-08T05:23:42.181Z,100976.31
2022-11-08T05:26:14.461Z,100973.69
2022-11-08T05:28:47.051Z,100975.25
2022-11-08T05:31:21.713Z,100971.66
2022-11-08T05:33:53.934Z,100977.09
2022-11-08T05:36:26.052Z,100979.41
2022-11-08T05:38:58.871Z,100975.44
2022-11-08T05:41:30.955Z,100977.41
2022-11-08T05:44:03.213Z,100970.94
2022-11-08T05:46:38.073Z,100972.72
2022-11-08T05:49:10.455Z,100977.28
2022-11-08T05:51:42.233Z,100966.28
2022-11-08T05:54:14.615Z,100974.34
2022-11-08T05:56:46.637Z,100976.97
2022-11-08T05:59:18.973Z,100980.31
2022-11-08T06:01:53.609Z,100978.97
2022-11-08T06:04:26.074Z,100980.75
2022-11-08T06:06:57.872Z,100977.56
2022-11-08T06:09:30.219Z,100987.00
2022-11-08T06:12:02.714Z,100987.22
2022-11-08T06:14:35.892Z,100991.56
2022-11-08T06:17:10.893Z,100991.66
2022-11-08T06:19:43.552Z,100994.06
2022-11-08T06:22:15.833Z,100991.72
2022-11-08T06:24:48.424Z,100990.31
2022-11-08T06:27:20.934Z,101005.06
2022-11-08T06:29:53.715Z,100991.03
2022-11-08T06:32:28.594Z,100996.09
2022-11-08T06:35:01.174Z,100999.84
2022-11-08T06:37:33.557Z,101002.41
2022-11-08T06:40:06.394Z,101002.25
2022-11-08T06:42:38.702Z,100999.47
2022-11-08T06:45:12.134Z,101000.28
2022-11-08T06:47:46.999Z,101006.53
2022-11-08T06:50:22.554Z,101006.75
2022-11-08T06:53:00.028Z,101005.31
2022-11-08T06:55:33.186Z,101008.63
2022-11-08T06:58:06.055Z,101010.50
2022-11-08T07:00:38.524Z,101008.03
2022-11-08T07:03:13.782Z,101002.91
2022-11-08T07:05:46.541Z,101007.31
2022-11-08T07:08:23.550Z,101013.84
2022-11-08T07:10:57.098Z,101012.03
2022-11-08T07:13:28.906Z,100999.59
2022-11-08T07:16:02.201Z,100999.94
2022-11-08T07:18:36.904Z,101002.88
2022-11-08T07:21:09.779Z,101000.38
2022-11-08T07:23:41.677Z,100993.75
2022-11-08T07:26:14.177Z,100993.06
2022-11-08T07:28:46.242Z,100991.94
2022-11-08T07:31:18.653Z,100994.09
2022-11-08T07:33:53.892Z,100995.47
2022-11-08T07:36:26.298Z,101000.75
2022-11-08T07:39:01.167Z,100999.78
2022-11-08T07:41:36.335Z,101000.19
2022-11-08T07:44:08.273Z,100997.16
2022-11-08T07:46:40.517Z,100994.75
2022-11-08T07:49:15.202Z,100997.75
2022-11-08T07:51:47.645Z,101002.38
2022-11-08T07:54:21.125Z,100993.19
2022-11-08T07:56:53.970Z,100995.41
2022-11-08T07:59:26.255Z,100996.78
2022-11-08T08:01:58.821Z,100995.75
2022-11-08T08:04:36.045Z,100993.44
2022-11-08T08:07:09.268Z,100993.44
2022-11-08T08:09:41.516Z,100986.38
2022-11-08T08:12:14.356Z,100987.41
2022-11-08T08:14:46.553Z,100983.53
2022-11-08T08:17:19.398Z,100977.66
2022-11-08T08:19:54.429Z,100978.66
2022-11-08T08:22:27.086Z,100971.78
2022-11-08T08:25:02.902Z,100970.88
2022-11-08T08:27:35.961Z,100968.03
2022-11-08T08:30:09.019Z,100963.16
2022-11-08T08:32:41.741Z,100963.47
2022-11-08T08:35:16.819Z,100972.56
2022-11-08T08:37:49.499Z,100963.78
2022-11-08T08:40:21.834Z,100959.63
2022-11-08T08:43:03.631Z,100967.97
2022-11-08T08:45:36.750Z,100960.97
2022-11-08T08:48:09.938Z,100958.53
2022-11-08T08:50:45.176Z,100967.22
2022-11-08T08:53:17.967Z,100962.50
2022-11-08T08:55:52.826Z,100953.34
2022-11-08T08:58:26.147Z,100957.41
2022-11-08T09:03:55.866Z,100956.84
2022-11-08T09:06:31.400Z,100959.59
2022-11-08T09:09:04.467Z,100956.22
2022-11-08T09:11:37.186Z,100955.50
2022-11-08T09:14:10.435Z,100949.88
2022-11-08T09:16:43.164Z,100957.66
2022-11-08T09:19:16.239Z,100951.78
2022-11-08T09:21:51.772Z,100953.59
2022-11-08T09:24:25.038Z,100955.78
2022-11-08T09:26:57.398Z,100957.34
2022-11-08T09:29:30.446Z,100953.03
2022-11-08T09:32:04.916Z,100949.66
2022-11-08T09:34:37.915Z,100952.06
2022-11-08T09:37:13.157Z,100951.88
2022-11-08T09:39:45.959Z,100951.75
2022-11-08T09:42:38.236Z,100950.88
2022-11-08T09:45:24.200Z,100948.84
2022-11-08T09:48:04.814Z,100946.84
2022-11-08T09:50:45.557Z,100945.53
2022-11-08T09:53:25.079Z,100949.16
2022-11-08T09:56:03.240Z,100947.19
2022-11-08T09:58:41.438Z,100939.16
2022-11-08T10:01:15.735Z,100940.91
2022-11-08T10:03:52.878Z,100937.00
2022-11-08T10:07:02.141Z,100933.16
2022-11-08T10:09:53.496Z,100929.88
2022-11-08T10:12:35.736Z,100931.53
2022-11-08T10:15:25.710Z,100919.38
2022-11-08T10:18:37.860Z,100926.97
2022-11-08T10:21:21.863Z,100931.81
2022-11-08T10:24:05.895Z,100917.28
2022-11-08T10:26:46.421Z,100921.66
2022-11-08T10:29:23.789Z,100916.13
2022-11-08T10:32:05.219Z,100916.50
2022-11-08T10:34:45.493Z,100921.34
2022-11-08T10:37:20.436Z,100913.81
2022-11-08T10:39:58.937Z,100910.69
2022-11-08T10:42:40.983Z,100914.66
2022-11-08T10:45:14.135Z,100910.69
2022-11-08T10:47:50.573Z,100905.66
2022-11-08T10:50:29.776Z,100904.41
2022-11-08T10:53:04.815Z,100907.78
2022-11-08T10:55:42.140Z,100904.22
2022-11-08T11:01:42.418Z,100905.25
2022-11-08T11:04:30.654Z,100903.34
2022-11-08T11:07:06.552Z,100892.06
2022-11-08T11:09:39.534Z,100895.22
2022-11-08T11:12:12.335Z,100890.41
2022-11-08T11:14:47.253Z,100896.69
2022-11-08T11:20:23.218Z,100889.78
2022-11-08T11:22:56.822Z,100890.19
2022-11-08T11:25:33.177Z,100876.63
2022-11-08T11:28:06.855Z,100881.41
2022-11-08T11:30:42.657Z,100879.31
2022-11-08T11:33:28.541Z,100878.06
2022-11-08T11:36:10.694Z,100875.34
2022-11-08T11:38:53.344Z,100870.53
2022-11-08T11:41:31.676Z,100866.56
2022-11-08T11:44:12.863Z,100866.53
2022-11-08T11:46:54.701Z,100852.94
2022-11-08T11:49:29.615Z,100854.84
2022-11-08T11:52:04.580Z,100858.16
2022-11-08T11:54:38.698Z,100850.13
2022-11-08T11:57:17.938Z,100850.03
2022-11-08T12:00:07.466Z,100855.47
2022-11-08T12:03:04.761Z,100846.88
2022-11-08T12:05:51.335Z,100834.56
2022-11-08T12:08:37.574Z,100839.56
2022-11-08T12:11:36.339Z,100829.34
2022-11-08T12:14:26.937Z,100834.13
2022-11-08T12:17:13.819Z,100822.84
2022-11-08T12:19:59.654Z,100822.44
2022-11-08T12:22:51.738Z,100815.94
2022-11-08T12:25:30.338Z,100810.50
2022-11-08T12:28:15.543Z,100806.13
2022-11-08T12:30:58.503Z,100811.78
2022-11-08T12:33:42.731Z,100798.38
2022-11-08T12:36:53.780Z,100798.19
2022-11-08T12:39:36.748Z,100803.41
2022-11-08T12:42:29.150Z,100814.06
2022-11-08T12:45:29.187Z,100797.34
2022-11-08T12:48:10.470Z,100794.00
2022-11-08T12:50:50.389Z,100792.97
2022-11-08T12:54:03.573Z,100793.38
2022-11-08T12:56:43.898Z,100790.44
2022-11-08T12:59:26.174Z,100787.34
2022-11-08T13:02:00.693Z,100780.63
2022-11-08T13:04:51.697Z,100777.50
2022-11-08T13:07:34.771Z,100775.63
2022-11-08T13:10:21.939Z,100776.63
2022-11-08T13:13:11.013Z,100765.78
2022-11-08T13:16:14.853Z,100758.50
2022-11-08T13:18:50.536Z,100768.53
2022-11-08T13:21:44.332Z,100758.88
2022-11-08T13:24:44.415Z,100745.53
2022-11-08T13:27:38.773Z,100742.19
2022-11-08T13:30:37.213Z,100730.69
2022-11-08T13:33:18.500Z,100738.63
2022-11-08T13:36:02.060Z,100729.81
2022-11-08T13:38:46.947Z,100736.09
2022-11-08T13:41:21.824Z,100736.94
2022-11-08T13:44:02.595Z,100732.78
2022-11-08T13:46:51.232Z,100744.69
2022-11-08T13:49:33.839Z,100742.19
2022-11-08T13:52:35.872Z,100747.81
2022-11-08T13:55:27.891Z,100752.00
2022-11-08T13:58:02.896Z,100740.72
2022-11-08T14:00:48.376Z,100751.97
2022-11-08T14:03:50.574Z,100744.41
2022-11-08T14:06:31.145Z,100753.41
2022-11-08T14:09:15.380Z,100745.75
2022-11-08T14:11:57.572Z,100737.56
2022-11-08T14:14:42.095Z,100734.56
2022-11-08T14:17:33.893Z,100731.66
2022-11-08T14:20:36.190Z,100720.59
2022-11-08T14:23:24.325Z,100719.94
2022-11-08T14:25:59.780Z,100722.44
2022-11-08T14:28:34.445Z,100719.34
2022-11-08T14:31:10.503Z,100717.91
2022-11-08T14:33:47.818Z,100721.00
2022-11-08T14:36:22.819Z,100722.88
2022-11-08T14:39:05.660Z,100723.13
2022-11-08T14:42:08.378Z,100720.16
2022-11-08T14:44:40.979Z,100726.84
2022-11-08T14:47:29.265Z,100725.34
2022-11-08T14:50:04.802Z,100716.81
2022-11-08T14:52:37.825Z,100718.88
2022-11-08T14:55:12.940Z,100714.88
2022-11-08T14:57:47.740Z,100709.53
2022-11-08T15:00:27.583Z,100706.03
2022-11-08T15:03:04.990Z,100707.13
2022-11-08T15:05:43.661Z,100703.81
2022-11-08T15:08:26.344Z,100695.59
2022-11-08T15:11:08.825Z,100693.56
2022-11-08T15:13:45.391Z,100692.28
2022-11-08T15:16:18.625Z,100682.09
2022-11-08T15:18:51.262Z,100680.00
2022-11-08T15:21:32.425Z,100681.84
2022-11-08T15:24:14.678Z,100677.75
2022-11-08T15:27:08.191Z,100670.72
2022-11-08T15:30:06.464Z,100677.03
2022-11-08T15:32:43.140Z,100674.19
2022-11-08T15:35:29.623Z,100668.88
2022-11-08T15:38:09.664Z,100673.50
2022-11-08T15:40:52.626Z,100674.78
2022-11-08T15:43:40.381Z,100675.19
2022-11-08T15:46:29.630Z,100676.03
2022-11-08T15:49:03.382Z,100679.75
2022-11-08T15:51:35.956Z,100672.47
2022-11-08T15:54:11.111Z,100667.84
2022-11-08T15:56:45.390Z,100669.63
2022-11-08T16:05:36.001Z,100672.59
2022-11-08T16:08:09.586Z,100673.16
2022-11-08T16:10:47.128Z,100667.53
2022-11-08T16:13:22.994Z,100661.28
2022-11-08T16:15:55.303Z,100671.22
2022-11-08T16:18:28.344Z,100662.56
2022-11-08T16:21:00.636Z,100660.31
2022-11-08T16:23:33.341Z,100668.94
2022-11-08T16:26:10.057Z,100674.13
2022-11-08T16:28:44.610Z,100669.31
2022-11-08T16:31:18.772Z,100673.16
2022-11-08T16:33:54.396Z,100665.47
2022-11-08T16:36:29.240Z,100669.22
2022-11-08T16:39:05.130Z,100651.69
2022-11-08T16:41:42.711Z,100651.84
2022-11-08T16:44:15.769Z,100660.28
2022-11-08T16:46:48.688Z,100655.81
2022-11-08T16:49:24.889Z,100663.69
2022-11-08T16:51:57.133Z,100665.53
2022-11-08T16:54:30.970Z,100654.19
2022-11-08T16:57:32.979Z,100661.41
2022-11-08T16:59:58.514Z,100659.16
2022-11-08T17:02:34.457Z,100655.47
2022-11-08T17:05:07.870Z,100650.34
2022-11-08T17:07:40.548Z,100655.88
2022-11-08T17:10:17.273Z,100658.59
2022-11-08T17:12:53.339Z,100657.75
2022-11-08T17:15:29.067Z,100653.38
2022-11-08T17:18:03.498Z,100660.34
2022-11-08T17:20:36.620Z,100660.69
2022-11-08T17:23:09.508Z,100654.63
2022-11-08T17:25:44.779Z,100659.63
2022-11-08T17:28:20.665Z,100652.84
2022-11-08T17:30:53.576Z,100663.50
2022-11-08T17:33:26.260Z,100656.25
2022-11-08T17:35:59.221Z,100658.00
2022-11-08T17:38:31.739Z,100663.38
2022-11-08T17:41:08.542Z,100666.69
2022-11-08T17:43:44.421Z,100667.16
2022-11-08T17:46:17.661Z,100661.28
2022-11-08T17:48:50.214Z,100662.41
2022-11-08T17:51:23.339Z,100657.91
2022-11-08T17:53:56.179Z,100653.50
2022-11-08T17:56:28.981Z,100652.94
2022-11-08T17:59:04.462Z,100655.94
2022-11-08T18:01:37.513Z,100654.91
2022-11-08T18:04:10.106Z,100652.91
2022-11-08T18:06:42.972Z,100661.88
2022-11-08T18:09:15.702Z,100659.59
2022-11-08T18:11:51.187Z,100671.00
2022-11-08T18:14:28.679Z,100670.19
2022-11-08T18:17:02.139Z,100669.16
2022-11-08T18:19:35.538Z,100670.09
2022-11-08T18:22:08.211Z,100663.19
2022-11-08T18:24:40.306Z,100670.09
2022-11-08T18:27:13.246Z,100663.47
2022-11-08T18:29:48.431Z,100656.56
2022-11-08T18:32:20.947Z,100663.47
2022-11-08T18:34:53.147Z,100659.56
2022-11-08T18:37:26.148Z,100670.69
2022-11-08T18:39:58.361Z,100652.31
2022-11-08T18:42:31.230Z,100649.09
2022-11-08T18:45:06.311Z,100656.91
2022-11-08T18:47:38.651Z,100659.66
2022-11-08T18:50:11.227Z,100651.13
2022-11-08T18:52:46.117Z,100641.38
2022-11-08T18:55:19.226Z,100644.41
2022-11-08T18:57:51.825Z,100655.22
2022-11-08T19:00:26.973Z,100649.84
2022-11-08T19:02:59.566Z,100654.97
2022-11-08T19:05:32.137Z,100662.59
2022-11-08T19:08:07.527Z,100656.44
2022-11-08T19:10:39.568Z,100653.53
2022-11-08T19:13:12.052Z,100650.25
2022-11-08T19:15:46.630Z,100649.63
2022-11-08T19:18:19.090Z,100650.72
2022-11-08T19:20:58.019Z,100658.25
2022-11-08T19:23:30.321Z,100655.81
2022-11-08T19:26:04.380Z,100662.50
2022-11-08T19:28:37.996Z,100663.34
2022-11-08T19:31:12.691Z,100662.94
2022-11-08T19:33:45.057Z,100660.59
2022-11-08T19:36:22.795Z,100667.34
2022-11-08T19:38:56.645Z,100664.88
2022-11-08T19:41:30.835Z,100660.31
2022-11-08T19:44:03.277Z,100670.09
2022-11-08T19:46:39.494Z,100673.28
2022-11-08T19:49:12.756Z,100671.34
2022-11-08T19:51:44.813Z,100671.41
2022-11-08T19:54:17.194Z,100670.09
2022-11-08T19:57:05.919Z,100668.25
2022-11-08T19:59:38.545Z,100664.81
2022-11-08T20:02:13.341Z,100663.34
2022-11-08T20:04:46.055Z,100661.41
2022-11-08T20:07:17.947Z,100666.59
2022-11-08T20:09:50.356Z,100665.34
2022-11-08T20:12:22.313Z,100660.59
2022-11-08T20:14:54.895Z,100650.81
2022-11-08T20:17:29.635Z,100652.47
2022-11-08T20:20:01.941Z,100652.00
2022-11-08T20:22:33.995Z,100640.63
2022-11-08T20:25:08.479Z,100644.16
2022-11-08T20:28:04.854Z,100650.88
2022-11-08T20:30:39.395Z,100650.84
2022-11-08T20:33:13.854Z,100653.09
2022-11-08T20:35:46.256Z,100655.22
2022-11-08T20:38:18.330Z,100658.19
2022-11-08T20:40:50.842Z,100650.91
2022-11-08T20:43:22.755Z,100659.81
2022-11-08T20:45:55.077Z,100656.34
2022-11-08T20:48:30.594Z,100657.09
2022-11-08T20:51:04.117Z,100652.91
2022-11-08T20:53:37.216Z,100651.16
2022-11-08T20:56:12.555Z,100652.66
2022-11-08T20:58:45.702Z,100652.13
2022-11-08T21:01:19.746Z,100666.06
2022-11-08T21:03:55.605Z,100656.19
2022-11-08T21:06:35.515Z,100663.91
2022-11-08T21:09:34.533Z,100656.19
2022-11-08T21:12:02.296Z,100656.28
2022-11-08T21:14:34.357Z,100659.22
2022-11-08T21:17:21.473Z,100659.97
2022-11-08T21:19:56.887Z,100651.03
2022-11-08T21:22:29.295Z,100652.56
2022-11-08T21:25:01.217Z,100644.84
2022-11-08T21:27:37.562Z,100650.03
2022-11-08T21:30:10.715Z,100650.13
2022-11-08T21:32:42.873Z,100644.84
2022-11-08T21:35:17.377Z,100645.47
2022-11-08T21:37:49.455Z,100644.56
2022-11-08T21:40:22.093Z,100653.38
2022-11-08T21:42:54.221Z,100653.09
2022-11-08T21:45:26.001Z,100653.56
2022-11-08T21:47:58.366Z,100653.09
2022-11-08T21:50:34.034Z,100650.00
2022-11-08T21:53:07.054Z,100640.72
2022-11-08T21:55:38.694Z,100649.66
2022-11-08T21:58:12.713Z,100654.97
2022-11-08T22:00:55.841Z,100650.06
2022-11-08T22:03:28.199Z,100649.25
2022-11-08T22:06:02.972Z,100646.81
2022-11-08T22:08:35.338Z,100648.84
2022-11-08T22:11:07.173Z,100639.94
2022-11-08T22:13:46.058Z,100631.81
2022-11-08T22:16:18.117Z,100636.72
2022-11-08T22:19:06.266Z,100633.75
2022-11-08T22:21:43.554Z,100634.97
2022-11-08T22:24:18.490Z,100635.50
2022-11-08T22:26:51.853Z,100632.63
2022-11-08T22:29:24.226Z,100645.25
2022-11-08T22:31:56.394Z,100651.00
2022-11-08T22:34:28.477Z,100641.69
2022-11-08T22:37:02.992Z,100643.66
2022-11-08T22:39:35.236Z,100645.16
2022-11-08T22:42:07.273Z,100638.50
2022-11-08T22:44:39.655Z,100635.63
2022-11-08T22:47:11.542Z,100640.06
2022-11-08T22:49:45.186Z,100638.78
2022-11-08T22:52:19.757Z,100642.34
2022-11-08T22:54:52.062Z,100641.84
2022-11-08T22:57:23.874Z,100645.66
2022-11-08T22:59:56.314Z,100650.03
2022-11-08T23:02:43.097Z,100642.91
2022-11-08T23:05:15.315Z,100650.78
2022-11-08T23:07:50.157Z,100643.69
2022-11-08T23:10:22.874Z,100640.78
2022-11-08T23:13:07.413Z,100644.97
2022-11-08T23:15:52.213Z,100646.03
2022-11-08T23:18:25.653Z,100640.81
2022-11-08T23:21:10.901Z,100649.50
2022-11-08T23:23:58.262Z,100640.56
2022-11-08T23:26:42.956Z,100640.88
2022-11-08T23:29:27.503Z,100645.94
2022-11-08T23:32:00.131Z,100644.06
2022-11-08T23:34:32.670Z,100648.41
2022-11-08T23:37:05.041Z,100659.03
2022-11-08T23:39:59.640Z,100654.06
2022-11-08T23:42:44.192Z,100653.47
2022-11-08T23:45:15.991Z,100652.00
2022-11-08T23:47:48.193Z,100657.44
2022-11-08T23:50:20.122Z,100660.97
2022-11-08T23:52:52.251Z,100661.94
2022-11-08T23:55:26.673Z,100658.53
2022-11-08T23:57:58.632Z,100664.72
